createdAt,value
2018-02-14T00:00:20.919Z,15.43
2018-02-14T00:02:48.813Z,12.27
2018-02-14T00:05:16.722Z,13.47
2018-02-14T00:07:44.576Z,15.60
2018-02-14T00:10:12.477Z,14.70
2018-02-14T00:12:40.356Z,15.17
2018-02-14T00:15:08.219Z,14.90
2018-02-14T00:17:36.146Z,14.10
2018-02-14T00:20:04.057Z,14.73
2018-02-14T00:22:32.016Z,17.43
2018-02-14T00:24:59.933Z,15.47
2018-02-14T00:27:28.746Z,14.70
2018-02-14T00:29:56.647Z,15.73
2018-02-14T00:32:24.564Z,14.57
2018-02-14T00:34:52.512Z,14.97
2018-02-14T00:37:20.394Z,14.00
2018-02-14T00:39:48.256Z,14.37
2018-02-14T00:42:16.145Z,14.47
2018-02-14T00:44:44.033Z,14.20
2018-02-14T00:47:11.904Z,14.77
2018-02-14T00:49:39.808Z,15.33
2018-02-14T00:52:07.697Z,14.93
2018-02-14T00:54:35.562Z,14.60
2018-02-14T00:57:03.496Z,15.70
2018-02-14T00:59:31.356Z,16.00
2018-02-14T01:01:59.269Z,16.60
2018-02-14T01:04:27.191Z,17.40
2018-02-14T01:06:55.179Z,16.33
2018-02-14T01:09:23.058Z,17.73
2018-02-14T01:11:50.948Z,17.87
2018-02-14T01:14:18.948Z,17.03
2018-02-14T01:16:46.816Z,17.27
2018-02-14T01:19:16.594Z,18.10
2018-02-14T01:21:49.592Z,18.47
2018-02-14T01:27:15.880Z,17.13
2018-02-14T01:32:41.431Z,17.37
2018-02-14T01:35:09.271Z,17.57
2018-02-14T01:37:37.133Z,16.10
2018-02-14T01:40:05.091Z,16.13
2018-02-14T01:42:32.939Z,15.63
2018-02-14T01:45:00.782Z,16.97
2018-02-14T01:47:28.647Z,17.30
2018-02-14T01:49:56.483Z,16.03
2018-02-14T01:52:24.544Z,16.90
2018-02-14T01:54:52.399Z,16.47
2018-02-14T01:57:20.279Z,15.37
2018-02-14T01:59:48.126Z,16.27
2018-02-14T02:02:15.991Z,15.53
2018-02-14T02:04:43.939Z,16.90
2018-02-14T02:07:11.844Z,16.33
2018-02-14T02:09:39.941Z,15.63
2018-02-14T02:12:07.826Z,16.47
2018-02-14T02:14:35.686Z,15.90
2018-02-14T02:17:03.542Z,15.60
2018-02-14T02:19:31.586Z,15.73
2018-02-14T02:21:59.549Z,15.60
2018-02-14T02:24:27.377Z,16.37
2018-02-14T02:26:55.228Z,16.57
2018-02-14T02:29:23.106Z,16.57
2018-02-14T02:31:50.996Z,18.17
2018-02-14T02:34:18.851Z,17.80
2018-02-14T02:36:46.767Z,18.33
2018-02-14T02:39:20.895Z,19.37
2018-02-14T02:41:48.795Z,18.47
2018-02-14T02:44:16.679Z,18.00
2018-02-14T02:46:44.532Z,19.17
2018-02-14T02:49:12.427Z,17.30
2018-02-14T02:51:40.274Z,17.97
2018-02-14T02:54:08.158Z,17.67
2018-02-14T02:56:35.995Z,18.20
2018-02-14T02:59:03.860Z,16.50
2018-02-14T03:01:31.727Z,16.60
2018-02-14T03:03:59.578Z,14.13
2018-02-14T03:06:27.450Z,16.67
2018-02-14T03:08:55.386Z,16.83
2018-02-14T03:11:23.307Z,17.53
2018-02-14T03:13:51.142Z,16.80
2018-02-14T03:16:18.976Z,16.10
2018-02-14T03:18:46.842Z,15.70
2018-02-14T03:21:14.674Z,15.80
2018-02-14T03:23:42.535Z,16.03
2018-02-14T03:26:10.378Z,16.90
2018-02-14T03:28:38.244Z,15.47
2018-02-14T03:31:06.113Z,13.30
2018-02-14T03:33:33.942Z,15.17
2018-02-14T03:36:01.810Z,16.93
2018-02-14T03:38:29.692Z,16.70
2018-02-14T03:40:57.531Z,16.60
2018-02-14T03:43:25.508Z,16.50
2018-02-14T03:45:53.356Z,16.43
2018-02-14T03:48:21.203Z,16.27
2018-02-14T03:50:49.074Z,17.27
2018-02-14T03:53:16.932Z,16.60
2018-02-14T03:55:44.765Z,16.80
2018-02-14T03:58:12.643Z,17.23
2018-02-14T04:00:40.503Z,18.20
2018-02-14T04:03:08.347Z,16.10
2018-02-14T04:05:36.263Z,16.30
2018-02-14T04:08:04.114Z,16.70
2018-02-14T04:10:31.959Z,16.50
2018-02-14T04:12:59.822Z,17.27
2018-02-14T04:15:27.675Z,16.23
2018-02-14T04:17:55.520Z,17.30
2018-02-14T04:20:23.387Z,15.97
2018-02-14T04:22:51.245Z,17.70
2018-02-14T04:25:19.122Z,18.03
2018-02-14T04:27:46.995Z,17.37
2018-02-14T04:30:16.839Z,18.50
2018-02-14T04:32:44.675Z,18.73
2018-02-14T04:35:12.538Z,17.57
2018-02-14T04:37:40.392Z,17.47
2018-02-14T04:40:08.231Z,16.83
2018-02-14T04:42:36.151Z,17.13
2018-02-14T04:45:04.012Z,18.10
2018-02-14T04:47:31.844Z,17.00
2018-02-14T04:49:59.725Z,18.00
2018-02-14T04:52:27.592Z,17.87
2018-02-14T04:54:55.436Z,17.63
2018-02-14T04:57:23.302Z,18.03
2018-02-14T04:59:51.234Z,16.60
2018-02-14T05:02:19.106Z,15.83
2018-02-14T05:04:46.962Z,17.13
2018-02-14T05:07:14.832Z,16.40
2018-02-14T05:09:42.680Z,17.57
2018-02-14T05:12:10.557Z,18.07
2018-02-14T05:14:38.415Z,16.63
2018-02-14T05:17:06.246Z,18.10
2018-02-14T05:19:34.123Z,15.57
2018-02-14T05:22:01.971Z,18.17
2018-02-14T05:24:29.804Z,19.47
2018-02-14T05:26:57.671Z,18.70
2018-02-14T05:29:25.527Z,19.07
2018-02-14T05:31:53.362Z,20.57
2018-02-14T05:34:21.243Z,21.03
2018-02-14T05:36:49.106Z,19.77
2018-02-14T05:39:16.951Z,19.97
2018-02-14T05:41:44.824Z,18.83
2018-02-14T05:44:12.759Z,21.67
2018-02-14T05:46:40.628Z,22.73
2018-02-14T05:49:08.508Z,20.03
2018-02-14T05:51:36.365Z,19.20
2018-02-14T05:54:04.232Z,19.90
2018-02-14T05:56:32.103Z,18.63
2018-02-14T05:58:59.952Z,17.17
2018-02-14T06:01:27.791Z,16.53
2018-02-14T06:03:55.712Z,19.43
2018-02-14T06:06:23.642Z,16.47
2018-02-14T06:08:51.494Z,18.17
2018-02-14T06:11:19.363Z,19.67
2018-02-14T06:13:47.219Z,20.30
2018-02-14T06:16:15.087Z,20.03
2018-02-14T06:18:42.968Z,20.17
2018-02-14T06:21:10.827Z,20.70
2018-02-14T06:23:38.682Z,21.87
2018-02-14T06:26:06.556Z,21.40
2018-02-14T06:28:34.394Z,20.57
2018-02-14T06:31:02.235Z,19.67
2018-02-14T06:33:30.147Z,21.83
2018-02-14T06:35:57.992Z,21.70
2018-02-14T06:38:25.843Z,22.63
2018-02-14T06:40:53.743Z,21.73
2018-02-14T06:43:21.580Z,23.70
2018-02-14T06:45:49.433Z,21.67
2018-02-14T06:48:17.294Z,22.37
2018-02-14T06:50:45.134Z,20.50
2018-02-14T06:53:13.027Z,20.77
2018-02-14T06:55:40.954Z,21.87
2018-02-14T06:58:08.799Z,20.40
2018-02-14T07:00:36.660Z,25.53
2018-02-14T07:03:04.531Z,20.90
2018-02-14T07:05:32.422Z,21.53
2018-02-14T07:08:00.291Z,20.37
2018-02-14T07:10:28.172Z,21.40
2018-02-14T07:12:56.043Z,22.23
2018-02-14T07:15:23.966Z,22.43
2018-02-14T07:17:51.828Z,21.23
2018-02-14T07:20:19.693Z,23.73
2018-02-14T07:22:47.623Z,21.77
2018-02-14T07:25:15.549Z,23.30
2018-02-14T07:27:43.431Z,23.00
2018-02-14T07:30:11.348Z,22.80
2018-02-14T07:32:39.263Z,23.70
2018-02-14T07:35:07.139Z,22.20
2018-02-14T07:37:35.270Z,24.20
2018-02-14T07:40:03.168Z,21.63
2018-02-14T07:42:31.059Z,21.93
2018-02-14T07:44:58.907Z,19.70
2018-02-14T07:47:28.172Z,24.37
2018-02-14T07:49:56.045Z,25.63
2018-02-14T07:52:23.899Z,25.60
2018-02-14T07:54:51.762Z,22.53
2018-02-14T07:57:19.656Z,22.70
2018-02-14T07:59:47.504Z,21.53
2018-02-14T08:02:15.398Z,23.57
2018-02-14T08:04:43.239Z,25.23
2018-02-14T08:07:11.160Z,24.53
2018-02-14T08:09:39.038Z,25.57
2018-02-14T08:12:06.899Z,26.33
2018-02-14T08:14:34.751Z,25.70
2018-02-14T08:17:02.670Z,24.63
2018-02-14T08:19:30.517Z,22.57
2018-02-14T08:21:58.382Z,25.03
2018-02-14T08:24:26.255Z,22.10
2018-02-14T08:26:54.155Z,22.83
2018-02-14T08:29:22.049Z,24.20
2018-02-14T08:31:50.022Z,24.20
2018-02-14T08:34:17.924Z,22.43
2018-02-14T08:36:45.792Z,21.50
2018-02-14T08:39:13.708Z,24.07
2018-02-14T08:41:41.555Z,24.43
2018-02-14T08:44:09.414Z,24.60
2018-02-14T08:46:37.310Z,24.03
2018-02-14T08:49:05.155Z,23.10
2018-02-14T08:51:33.051Z,25.10
2018-02-14T08:54:01.037Z,24.27
2018-02-14T08:56:28.917Z,24.47
2018-02-14T08:58:56.775Z,26.17
2018-02-14T09:01:24.650Z,24.70
2018-02-14T09:03:52.504Z,23.57
2018-02-14T09:06:20.424Z,24.27
2018-02-14T09:08:48.417Z,23.57
2018-02-14T09:11:16.262Z,23.90
2018-02-14T09:13:44.114Z,25.10
2018-02-14T09:16:11.990Z,25.10
2018-02-14T09:18:39.838Z,24.93
2018-02-14T09:21:07.687Z,23.27
2018-02-14T09:23:35.568Z,26.20
2018-02-14T09:26:03.422Z,26.47
2018-02-14T09:28:31.267Z,22.30
2018-02-14T09:30:59.154Z,23.23
2018-02-14T09:33:27.023Z,25.50
2018-02-14T09:35:54.879Z,22.80
2018-02-14T09:38:22.771Z,24.10
2018-02-14T09:40:50.624Z,23.30
2018-02-14T09:43:18.526Z,22.87
2018-02-14T09:45:46.406Z,22.60
2018-02-14T09:48:14.254Z,22.00
2018-02-14T09:50:42.138Z,20.80
2018-02-14T09:53:09.998Z,20.67
2018-02-14T09:55:37.834Z,19.70
2018-02-14T09:58:05.729Z,21.07
2018-02-14T10:00:33.626Z,21.90
2018-02-14T10:03:01.493Z,22.10
2018-02-14T10:05:29.351Z,22.40
2018-02-14T10:07:57.228Z,20.50
2018-02-14T10:10:25.118Z,20.90
2018-02-14T10:12:52.971Z,20.00
2018-02-14T10:15:20.843Z,23.40
2018-02-14T10:17:48.781Z,21.87
2018-02-14T10:20:16.634Z,23.33
2018-02-14T10:22:44.555Z,22.23
2018-02-14T10:25:12.411Z,24.13
2018-02-14T10:27:40.268Z,23.63
2018-02-14T10:30:08.221Z,20.67
2018-02-14T10:32:36.088Z,21.77
2018-02-14T10:35:03.998Z,21.73
2018-02-14T10:37:31.855Z,22.07
2018-02-14T10:39:59.716Z,21.40
2018-02-14T10:42:27.582Z,21.83
2018-02-14T10:44:55.453Z,22.70
2018-02-14T10:47:23.312Z,22.03
2018-02-14T10:49:51.174Z,23.23
2018-02-14T10:52:19.051Z,24.87
2018-02-14T10:54:46.914Z,23.60
2018-02-14T10:57:14.748Z,24.00
2018-02-14T10:59:42.644Z,22.10
2018-02-14T11:02:10.520Z,21.93
2018-02-14T11:04:44.711Z,26.60
2018-02-14T11:07:17.579Z,26.00
2018-02-14T11:09:45.463Z,21.70
2018-02-14T11:12:13.357Z,26.47
2018-02-14T11:14:41.191Z,24.83
2018-02-14T11:17:09.060Z,22.20
2018-02-14T11:19:36.900Z,26.00
2018-02-14T11:22:04.780Z,19.93
2018-02-14T11:24:32.660Z,20.10
2018-02-14T11:27:00.500Z,22.27
2018-02-14T11:29:28.364Z,22.60
2018-02-14T11:31:56.229Z,25.53
2018-02-14T11:34:24.085Z,18.67
2018-02-14T11:36:51.932Z,21.20
2018-02-14T11:39:19.798Z,24.00
2018-02-14T11:41:47.640Z,22.47
2018-02-14T11:44:15.487Z,19.33
2018-02-14T11:46:43.358Z,19.00
2018-02-14T11:49:11.231Z,18.17
2018-02-14T11:51:39.113Z,22.00
2018-02-14T11:54:06.975Z,20.20
2018-02-14T11:56:34.837Z,25.03
2018-02-14T11:59:02.688Z,21.73
2018-02-14T12:01:30.558Z,14.27
2018-02-14T12:03:58.401Z,19.47
2018-02-14T12:06:26.293Z,20.50
2018-02-14T12:08:54.171Z,19.30
2018-02-14T12:11:22.024Z,19.53
2018-02-14T12:13:49.934Z,14.23
2018-02-14T12:16:17.779Z,19.20
2018-02-14T12:18:45.676Z,17.97
2018-02-14T12:21:13.548Z,15.40
2018-02-14T12:23:41.397Z,15.63
2018-02-14T12:26:09.271Z,15.47
2018-02-14T12:28:37.120Z,17.20
2018-02-14T12:31:04.983Z,17.50
2018-02-14T12:33:32.841Z,14.00
2018-02-14T12:36:00.720Z,16.10
2018-02-14T12:38:28.593Z,12.80
2018-02-14T12:40:56.460Z,9.67
2018-02-14T12:43:24.315Z,8.00
2018-02-14T12:45:52.205Z,11.70
2018-02-14T12:48:20.063Z,8.30
2018-02-14T12:50:47.635Z,13.83
2018-02-14T12:53:13.887Z,14.37
2018-02-14T12:55:41.776Z,12.97
2018-02-14T12:58:09.610Z,16.03
2018-02-14T13:00:37.499Z,14.50
2018-02-14T13:03:05.364Z,9.60
2018-02-14T13:05:33.208Z,9.47
2018-02-14T13:08:01.071Z,11.60
2018-02-14T13:10:28.930Z,11.57
2018-02-14T13:12:56.767Z,8.43
2018-02-14T13:15:24.740Z,11.27
2018-02-14T13:17:52.613Z,11.50
2018-02-14T13:20:20.555Z,13.63
2018-02-14T13:22:48.436Z,14.47
2018-02-14T13:25:16.339Z,16.67
2018-02-14T13:27:44.254Z,17.33
2018-02-14T13:30:12.125Z,20.80
2018-02-14T13:32:39.964Z,15.17
2018-02-14T13:35:07.858Z,17.47
2018-02-14T13:37:35.794Z,16.40
2018-02-14T13:40:03.649Z,20.07
2018-02-14T13:42:31.490Z,18.50
2018-02-14T13:44:59.518Z,16.93
2018-02-14T13:47:27.417Z,19.47
2018-02-14T13:49:55.347Z,18.20
2018-02-14T13:52:23.227Z,18.33
2018-02-14T13:54:51.110Z,17.90
2018-02-14T13:57:19.052Z,16.10
2018-02-14T13:59:46.923Z,18.33
2018-02-14T14:02:14.782Z,18.83
2018-02-14T14:04:42.673Z,17.50
2018-02-14T14:07:10.721Z,18.87
2018-02-14T14:09:38.575Z,18.23
2018-02-14T14:12:06.452Z,18.23
2018-02-14T14:14:34.320Z,20.37
2018-02-14T14:17:02.156Z,18.83
2018-02-14T14:19:30.016Z,15.33
2018-02-14T14:21:57.884Z,15.07
2018-02-14T14:24:25.794Z,14.60
2018-02-14T14:26:53.679Z,14.10
2018-02-14T14:29:21.551Z,13.50
2018-02-14T14:31:49.415Z,16.40
2018-02-14T14:34:17.295Z,15.20
2018-02-14T14:36:45.450Z,15.57
2018-02-14T14:39:13.408Z,15.40
2018-02-14T14:41:41.282Z,16.97
2018-02-14T14:44:09.272Z,16.97
2018-02-14T14:46:37.134Z,16.17
2018-02-14T14:49:05.046Z,15.93
2018-02-14T14:51:32.952Z,16.37
2018-02-14T14:54:00.810Z,18.30
2018-02-14T14:56:28.664Z,18.00
2018-02-14T14:58:56.587Z,17.90
2018-02-14T15:01:24.432Z,15.00
2018-02-14T15:03:52.591Z,17.53
2018-02-14T15:06:20.480Z,18.40
2018-02-14T15:08:48.339Z,17.80
2018-02-14T15:11:16.274Z,17.93
2018-02-14T15:13:44.111Z,18.60
2018-02-14T15:16:11.976Z,18.50
2018-02-14T15:18:39.823Z,18.93
2018-02-14T15:21:07.671Z,20.03
2018-02-14T15:23:35.575Z,19.03
2018-02-14T15:26:03.440Z,18.67
2018-02-14T15:28:31.297Z,17.70
2018-02-14T15:30:59.127Z,19.67
2018-02-14T15:33:27.008Z,18.00
2018-02-14T15:35:54.843Z,24.87
2018-02-14T15:38:22.675Z,18.90
2018-02-14T15:40:50.531Z,21.07
2018-02-14T15:43:18.371Z,19.50
2018-02-14T15:45:46.203Z,19.97
2018-02-14T15:48:14.071Z,21.73
2018-02-14T15:50:41.915Z,21.20
2018-02-14T15:53:09.805Z,22.33
2018-02-14T15:55:37.625Z,20.90
2018-02-14T15:58:05.476Z,19.93
2018-02-14T16:00:33.326Z,21.93
2018-02-14T16:03:01.163Z,21.17
2018-02-14T16:05:29.090Z,23.57
2018-02-14T16:07:56.944Z,25.40
2018-02-14T16:10:24.846Z,25.13
2018-02-14T16:12:52.671Z,26.17
2018-02-14T16:15:20.534Z,27.63
2018-02-14T16:17:48.401Z,26.27
2018-02-14T16:20:16.228Z,28.83
2018-02-14T16:22:44.136Z,27.87
2018-02-14T16:25:11.971Z,30.47
2018-02-14T16:27:39.816Z,31.60
2018-02-14T16:30:07.708Z,29.63
2018-02-14T16:32:35.555Z,25.50
2018-02-14T16:35:03.476Z,29.53
2018-02-14T16:37:31.312Z,29.60
2018-02-14T16:39:59.160Z,28.60
2018-02-14T16:42:27.058Z,29.47
2018-02-14T16:44:54.944Z,27.93
2018-02-14T16:47:22.817Z,27.37
2018-02-14T16:49:50.715Z,31.67
2018-02-14T16:52:18.556Z,30.70
2018-02-14T16:54:46.419Z,33.07
2018-02-14T16:57:14.339Z,31.30
2018-02-14T16:59:42.326Z,32.40
2018-02-14T17:02:10.171Z,32.47
2018-02-14T17:04:38.072Z,30.30
2018-02-14T17:07:05.916Z,31.40
2018-02-14T17:09:33.807Z,27.17
2018-02-14T17:12:01.678Z,31.83
2018-02-14T17:14:29.546Z,30.60
2018-02-14T17:16:57.403Z,33.20
2018-02-14T17:19:25.297Z,36.73
2018-02-14T17:21:53.139Z,35.80
2018-02-14T17:24:21.017Z,33.37
2018-02-14T17:26:48.943Z,34.27
2018-02-14T17:29:16.796Z,37.17
2018-02-14T17:31:44.699Z,33.87
2018-02-14T17:34:12.642Z,34.13
2018-02-14T17:36:40.492Z,33.90
2018-02-14T17:39:09.307Z,28.77
2018-02-14T17:41:37.242Z,34.10
2018-02-14T17:44:05.067Z,35.57
2018-02-14T17:46:32.916Z,33.87
2018-02-14T17:49:00.960Z,35.73
2018-02-14T17:51:28.830Z,36.83
2018-02-14T17:53:56.699Z,35.80
2018-02-14T17:56:24.591Z,39.70
2018-02-14T17:58:52.491Z,38.43
2018-02-14T18:01:20.391Z,36.97
2018-02-14T18:03:48.279Z,36.67
2018-02-14T18:06:16.159Z,36.43
2018-02-14T18:08:44.024Z,37.30
2018-02-14T18:11:12.232Z,37.33
2018-02-14T18:13:40.091Z,39.23
2018-02-14T18:16:11.985Z,38.47
2018-02-14T18:18:39.852Z,38.73
2018-02-14T18:21:07.704Z,40.63
2018-02-14T18:23:35.666Z,42.60
2018-02-14T18:26:03.531Z,40.23
2018-02-14T18:28:31.367Z,39.90
2018-02-14T18:30:59.267Z,39.03
2018-02-14T18:33:27.131Z,43.43
2018-02-14T18:35:55.056Z,42.17
2018-02-14T18:38:22.947Z,38.90
2018-02-14T18:40:50.796Z,39.83
2018-02-14T18:43:18.643Z,38.10
2018-02-14T18:45:46.561Z,40.43
2018-02-14T18:48:14.412Z,37.47
2018-02-14T18:50:42.272Z,38.90
2018-02-14T18:53:10.169Z,41.70
2018-02-14T18:55:38.017Z,40.43
2018-02-14T18:58:05.881Z,41.60
2018-02-14T19:00:33.798Z,38.70
2018-02-14T19:03:01.656Z,42.83
2018-02-14T19:05:29.509Z,36.57
2018-02-14T19:07:57.437Z,39.77
2018-02-14T19:10:25.289Z,36.07
2018-02-14T19:12:53.679Z,37.67
2018-02-14T19:15:21.585Z,38.40
2018-02-14T19:17:49.458Z,38.23
2018-02-14T19:20:17.378Z,41.20
2018-02-14T19:22:45.250Z,42.07
2018-02-14T19:25:13.146Z,39.43
2018-02-14T19:27:41.003Z,42.20
2018-02-14T19:30:09.028Z,40.57
2018-02-14T19:32:36.900Z,45.43
2018-02-14T19:35:04.799Z,43.47
2018-02-14T19:37:32.674Z,43.97
2018-02-14T19:40:00.535Z,43.40
2018-02-14T19:42:28.383Z,39.33
2018-02-14T19:44:56.435Z,38.57
2018-02-14T19:47:24.332Z,42.07
2018-02-14T19:49:52.223Z,41.20
2018-02-14T19:52:20.106Z,41.77
2018-02-14T19:54:47.990Z,38.87
2018-02-14T19:57:15.867Z,40.57
2018-02-14T19:59:43.743Z,43.00
2018-02-14T20:02:11.660Z,40.67
2018-02-14T20:04:39.545Z,40.50
2018-02-14T20:07:07.443Z,42.50
2018-02-14T20:09:35.332Z,43.93
2018-02-14T20:12:03.191Z,39.33
2018-02-14T20:14:31.095Z,40.40
2018-02-14T20:16:58.954Z,29.60
2018-02-14T20:19:26.805Z,30.00
2018-02-14T20:21:54.683Z,35.87
2018-02-14T20:24:23.168Z,30.00
2018-02-14T20:26:51.044Z,38.80
2018-02-14T20:29:18.940Z,38.50
2018-02-14T20:31:46.800Z,39.17
2018-02-14T20:34:14.656Z,38.70
2018-02-14T20:36:42.546Z,38.73
2018-02-14T20:39:10.585Z,33.30
2018-02-14T20:41:38.466Z,35.30
2018-02-14T20:44:06.355Z,37.50
2018-02-14T20:46:34.272Z,34.83
2018-02-14T20:49:02.236Z,39.37
2018-02-14T20:51:30.108Z,29.67
2018-02-14T20:53:58.143Z,46.67
2018-02-14T20:56:26.017Z,39.23
2018-02-14T20:58:53.907Z,38.70
2018-02-14T21:01:21.795Z,34.70
2018-02-14T21:03:49.752Z,31.87
2018-02-14T21:06:17.682Z,36.67
2018-02-14T21:08:45.566Z,37.53
2018-02-14T21:11:13.483Z,35.93
2018-02-14T21:13:41.354Z,37.27
2018-02-14T21:16:09.289Z,41.13
2018-02-14T21:18:37.163Z,37.50
2018-02-14T21:21:05.110Z,36.73
2018-02-14T21:23:33.011Z,39.20
2018-02-14T21:26:00.903Z,38.03
2018-02-14T21:28:30.297Z,37.10
2018-02-14T21:30:58.223Z,37.87
2018-02-14T21:33:26.123Z,35.67
2018-02-14T21:35:54.036Z,35.53
2018-02-14T21:38:21.923Z,37.67
2018-02-14T21:40:49.794Z,33.60
2018-02-14T21:43:17.755Z,39.83
2018-02-14T21:45:45.626Z,37.73
2018-02-14T21:48:13.523Z,36.20
2018-02-14T21:50:41.419Z,34.33
2018-02-14T21:53:09.317Z,37.00
2018-02-14T21:55:37.185Z,35.50
2018-02-14T21:58:05.122Z,36.30
2018-02-14T22:00:33.029Z,34.00
2018-02-14T22:03:00.959Z,32.93
2018-02-14T22:05:28.904Z,34.10
2018-02-14T22:07:56.791Z,37.30
2018-02-14T22:10:24.699Z,34.00
2018-02-14T22:12:52.598Z,34.90
2018-02-14T22:15:20.471Z,29.90
2018-02-14T22:17:48.334Z,29.53
2018-02-14T22:20:16.249Z,31.53
2018-02-14T22:22:44.152Z,28.03
2018-02-14T22:25:12.053Z,33.10
2018-02-14T22:27:40.016Z,34.60
2018-02-14T22:30:07.924Z,32.40
2018-02-14T22:32:35.822Z,35.63
2018-02-14T22:35:03.722Z,35.70
2018-02-14T22:37:31.634Z,36.60
2018-02-14T22:39:59.537Z,33.60
2018-02-14T22:42:27.470Z,34.13
2018-02-14T22:44:55.389Z,28.37
2018-02-14T22:47:23.306Z,27.83
2018-02-14T22:49:51.227Z,25.47
2018-02-14T22:52:19.183Z,24.37
2018-02-14T22:54:47.050Z,27.50
2018-02-14T22:57:15.095Z,26.27
2018-02-14T22:59:42.999Z,27.23
2018-02-14T23:02:10.870Z,26.97
2018-02-14T23:04:38.789Z,24.00
2018-02-14T23:07:06.697Z,23.00
2018-02-14T23:09:34.622Z,24.60
2018-02-14T23:12:03.332Z,25.60
2018-02-14T23:14:31.225Z,25.33
2018-02-14T23:16:59.118Z,23.00
2018-02-14T23:19:27.039Z,23.63
2018-02-14T23:21:54.960Z,16.80
2018-02-14T23:24:22.957Z,20.57
2018-02-14T23:26:50.995Z,27.83
2018-02-14T23:29:18.922Z,18.20
2018-02-14T23:31:46.859Z,26.33
2018-02-14T23:34:14.863Z,27.50
2018-02-14T23:36:42.822Z,25.70
2018-02-14T23:39:10.694Z,25.77
2018-02-14T23:41:38.610Z,28.70
2018-02-14T23:44:06.470Z,26.30
2018-02-14T23:46:34.334Z,22.43
2018-02-14T23:49:02.242Z,16.33
2018-02-14T23:51:30.111Z,28.27
2018-02-14T23:53:57.971Z,29.50
2018-02-14T23:56:25.912Z,21.07
2018-02-14T23:58:53.851Z,27.90
